Terminal Aerodrome Forecast
Issued by NWS

Home | Current Version | Previous Version | Text Only | Print | Product List | Glossary On
Versions: 1 2 3 4 5 6 7 8 9 10 11 12 13 14 15
000
FTUS42 TJSJ 040200 AAA
TAFJSJ
TAF AMD
TJSJ 040255Z 0403/0424 06006KT P6SM VCSH FEW029 SCT045 SCT060
     FM041330 06015KT P6SM FEW030 FEW050
     FM041600 07018G25KT P6SM SCT035 SCT060
     FM042300 08009KT P6SM SCT030=

USA.gov is the U.S. government's official web portal to all federal, state and local government web resources and services.